sensor_id;sensor_type;location;lat;lon;timestamp;P1;durP1;ratioP1;P2;durP2;ratioP2
76409;SDS011;65238;42.662;23.280;2023-06-14T00:00:35;10.75;;;6.97;;
76409;SDS011;65238;42.662;23.280;2023-06-14T00:03:01;10.50;;;7.43;;
76409;SDS011;65238;42.662;23.280;2023-06-14T00:05:28;12.13;;;6.53;;
76409;SDS011;65238;42.662;23.280;2023-06-14T00:07:55;11.75;;;7.00;;
76409;SDS011;65238;42.662;23.280;2023-06-14T00:10:20;11.30;;;7.40;;
76409;SDS011;65238;42.662;23.280;2023-06-14T00:12:45;10.00;;;6.35;;
76409;SDS011;65238;42.662;23.280;2023-06-14T00:15:11;8.85;;;6.13;;
76409;SDS011;65238;42.662;23.280;2023-06-14T00:17:36;9.48;;;6.15;;
76409;SDS011;65238;42.662;23.280;2023-06-14T00:20:05;11.23;;;5.80;;
76409;SDS011;65238;42.662;23.280;2023-06-14T00:22:31;6.43;;;4.90;;
76409;SDS011;65238;42.662;23.280;2023-06-14T00:24:57;7.85;;;5.07;;
76409;SDS011;65238;42.662;23.280;2023-06-14T00:27:23;8.75;;;5.63;;
76409;SDS011;65238;42.662;23.280;2023-06-14T00:29:49;6.68;;;4.95;;
76409;SDS011;65238;42.662;23.280;2023-06-14T00:32:15;9.15;;;5.45;;
76409;SDS011;65238;42.662;23.280;2023-06-14T00:34:40;8.27;;;5.10;;
76409;SDS011;65238;42.662;23.280;2023-06-14T00:37:05;8.57;;;5.13;;
76409;SDS011;65238;42.662;23.280;2023-06-14T00:39:31;11.48;;;5.40;;
76409;SDS011;65238;42.662;23.280;2023-06-14T00:41:56;6.57;;;5.20;;
76409;SDS011;65238;42.662;23.280;2023-06-14T00:44:22;7.40;;;5.45;;
76409;SDS011;65238;42.662;23.280;2023-06-14T00:46:48;8.40;;;5.07;;
76409;SDS011;65238;42.662;23.280;2023-06-14T00:49:14;10.30;;;6.10;;
76409;SDS011;65238;42.662;23.280;2023-06-14T00:51:41;8.65;;;5.70;;
76409;SDS011;65238;42.662;23.280;2023-06-14T00:54:07;8.23;;;5.78;;
76409;SDS011;65238;42.662;23.280;2023-06-14T00:56:35;10.82;;;6.07;;
76409;SDS011;65238;42.662;23.280;2023-06-14T00:59:03;9.80;;;6.85;;
76409;SDS011;65238;42.662;23.280;2023-06-14T01:01:32;17.17;;;7.95;;
76409;SDS011;65238;42.662;23.280;2023-06-14T01:04:00;12.82;;;8.00;;
76409;SDS011;65238;42.662;23.280;2023-06-14T01:06:49;16.50;;;8.82;;
76409;SDS011;65238;42.662;23.280;2023-06-14T01:09:33;11.95;;;8.20;;
76409;SDS011;65238;42.662;23.280;2023-06-14T01:12:11;10.63;;;6.75;;
76409;SDS011;65238;42.662;23.280;2023-06-14T01:14:41;12.40;;;6.43;;
76409;SDS011;65238;42.662;23.280;2023-06-14T01:17:07;11.43;;;6.32;;
76409;SDS011;65238;42.662;23.280;2023-06-14T01:19:40;12.98;;;6.32;;
76409;SDS011;65238;42.662;23.280;2023-06-14T01:22:07;10.20;;;6.22;;
76409;SDS011;65238;42.662;23.280;2023-06-14T01:24:33;10.15;;;7.20;;
76409;SDS011;65238;42.662;23.280;2023-06-14T01:26:59;10.07;;;6.78;;
76409;SDS011;65238;42.662;23.280;2023-06-14T01:29:25;15.88;;;6.82;;
76409;SDS011;65238;42.662;23.280;2023-06-14T01:31:53;11.57;;;6.60;;
76409;SDS011;65238;42.662;23.280;2023-06-14T01:34:18;8.98;;;6.30;;
76409;SDS011;65238;42.662;23.280;2023-06-14T01:36:44;8.98;;;5.47;;
76409;SDS011;65238;42.662;23.280;2023-06-14T01:39:14;14.23;;;6.68;;
76409;SDS011;65238;42.662;23.280;2023-06-14T01:41:40;7.38;;;6.05;;
76409;SDS011;65238;42.662;23.280;2023-06-14T01:44:06;11.18;;;5.70;;
76409;SDS011;65238;42.662;23.280;2023-06-14T01:46:31;10.63;;;6.35;;
76409;SDS011;65238;42.662;23.280;2023-06-14T01:48:57;10.95;;;5.78;;
76409;SDS011;65238;42.662;23.280;2023-06-14T01:51:23;10.02;;;5.93;;
76409;SDS011;65238;42.662;23.280;2023-06-14T01:53:48;8.10;;;5.55;;
76409;SDS011;65238;42.662;23.280;2023-06-14T01:56:14;6.22;;;4.55;;
76409;SDS011;65238;42.662;23.280;2023-06-14T01:58:39;8.35;;;4.40;;
76409;SDS011;65238;42.662;23.280;2023-06-14T02:01:05;6.70;;;4.93;;
76409;SDS011;65238;42.662;23.280;2023-06-14T02:03:31;6.78;;;4.90;;
76409;SDS011;65238;42.662;23.280;2023-06-14T02:05:57;8.50;;;5.38;;
76409;SDS011;65238;42.662;23.280;2023-06-14T02:08:23;7.68;;;4.85;;
76409;SDS011;65238;42.662;23.280;2023-06-14T02:10:48;10.75;;;5.00;;
76409;SDS011;65238;42.662;23.280;2023-06-14T02:13:14;6.90;;;4.72;;
76409;SDS011;65238;42.662;23.280;2023-06-14T02:15:39;8.23;;;4.68;;
76409;SDS011;65238;42.662;23.280;2023-06-14T02:18:05;5.75;;;4.63;;
76409;SDS011;65238;42.662;23.280;2023-06-14T02:20:31;9.02;;;5.22;;
76409;SDS011;65238;42.662;23.280;2023-06-14T02:22:56;6.35;;;5.28;;
76409;SDS011;65238;42.662;23.280;2023-06-14T02:25:22;8.05;;;5.22;;
76409;SDS011;65238;42.662;23.280;2023-06-14T02:27:47;9.75;;;5.65;;
76409;SDS011;65238;42.662;23.280;2023-06-14T02:30:13;7.63;;;4.93;;
76409;SDS011;65238;42.662;23.280;2023-06-14T02:32:38;8.05;;;4.78;;
76409;SDS011;65238;42.662;23.280;2023-06-14T02:35:05;8.82;;;5.47;;
76409;SDS011;65238;42.662;23.280;2023-06-14T02:37:31;7.45;;;5.07;;
76409;SDS011;65238;42.662;23.280;2023-06-14T02:39:57;6.97;;;5.70;;
76409;SDS011;65238;42.662;23.280;2023-06-14T02:42:23;7.70;;;4.93;;
76409;SDS011;65238;42.662;23.280;2023-06-14T02:44:49;7.70;;;5.03;;
76409;SDS011;65238;42.662;23.280;2023-06-14T02:47:16;7.32;;;4.60;;
76409;SDS011;65238;42.662;23.280;2023-06-14T02:49:42;6.15;;;4.40;;
76409;SDS011;65238;42.662;23.280;2023-06-14T02:52:08;5.80;;;4.20;;
76409;SDS011;65238;42.662;23.280;2023-06-14T02:54:34;7.55;;;4.53;;
76409;SDS011;65238;42.662;23.280;2023-06-14T02:56:59;6.68;;;4.20;;
76409;SDS011;65238;42.662;23.280;2023-06-14T02:59:25;6.18;;;4.32;;
76409;SDS011;65238;42.662;23.280;2023-06-14T03:01:51;5.57;;;4.43;;
76409;SDS011;65238;42.662;23.280;2023-06-14T03:04:16;7.47;;;4.53;;
76409;SDS011;65238;42.662;23.280;2023-06-14T03:06:42;5.40;;;4.20;;
76409;SDS011;65238;42.662;23.280;2023-06-14T03:09:09;5.50;;;4.20;;
76409;SDS011;65238;42.662;23.280;2023-06-14T03:11:34;5.00;;;4.28;;
76409;SDS011;65238;42.662;23.280;2023-06-14T03:14:00;5.07;;;4.05;;
76409;SDS011;65238;42.662;23.280;2023-06-14T03:16:28;5.70;;;4.22;;
76409;SDS011;65238;42.662;23.280;2023-06-14T03:18:55;5.38;;;3.92;;
76409;SDS011;65238;42.662;23.280;2023-06-14T03:21:20;6.93;;;4.30;;
76409;SDS011;65238;42.662;23.280;2023-06-14T03:23:47;6.65;;;4.40;;
76409;SDS011;65238;42.662;23.280;2023-06-14T03:26:13;9.35;;;4.93;;
76409;SDS011;65238;42.662;23.280;2023-06-14T03:28:39;8.77;;;4.43;;
76409;SDS011;65238;42.662;23.280;2023-06-14T03:31:05;6.70;;;4.47;;
76409;SDS011;65238;42.662;23.280;2023-06-14T03:33:30;6.75;;;4.78;;
76409;SDS011;65238;42.662;23.280;2023-06-14T03:35:56;6.50;;;4.68;;
76409;SDS011;65238;42.662;23.280;2023-06-14T03:38:21;5.35;;;4.65;;
76409;SDS011;65238;42.662;23.280;2023-06-14T03:40:47;5.80;;;4.90;;
76409;SDS011;65238;42.662;23.280;2023-06-14T03:43:12;10.98;;;5.32;;
76409;SDS011;65238;42.662;23.280;2023-06-14T03:45:38;7.00;;;5.40;;
76409;SDS011;65238;42.662;23.280;2023-06-14T03:48:03;6.88;;;5.05;;
76409;SDS011;65238;42.662;23.280;2023-06-14T03:50:31;7.68;;;5.28;;
76409;SDS011;65238;42.662;23.280;2023-06-14T03:52:57;7.63;;;5.22;;
76409;SDS011;65238;42.662;23.280;2023-06-14T03:55:22;7.38;;;5.38;;
76409;SDS011;65238;42.662;23.280;2023-06-14T03:57:50;11.23;;;5.10;;
76409;SDS011;65238;42.662;23.280;2023-06-14T04:00:16;5.95;;;4.78;;
76409;SDS011;65238;42.662;23.280;2023-06-14T04:02:41;7.50;;;5.38;;
76409;SDS011;65238;42.662;23.280;2023-06-14T04:05:09;15.55;;;5.47;;
76409;SDS011;65238;42.662;23.280;2023-06-14T04:07:34;12.07;;;5.53;;
76409;SDS011;65238;42.662;23.280;2023-06-14T04:10:05;8.77;;;5.50;;
76409;SDS011;65238;42.662;23.280;2023-06-14T04:12:33;8.25;;;5.55;;
76409;SDS011;65238;42.662;23.280;2023-06-14T04:14:59;8.20;;;5.57;;
76409;SDS011;65238;42.662;23.280;2023-06-14T04:17:25;8.60;;;5.70;;
76409;SDS011;65238;42.662;23.280;2023-06-14T04:19:51;8.90;;;6.25;;
76409;SDS011;65238;42.662;23.280;2023-06-14T04:22:16;12.85;;;6.75;;
76409;SDS011;65238;42.662;23.280;2023-06-14T04:24:42;11.77;;;6.22;;
76409;SDS011;65238;42.662;23.280;2023-06-14T04:27:07;8.27;;;5.60;;
76409;SDS011;65238;42.662;23.280;2023-06-14T04:29:33;8.23;;;5.93;;
76409;SDS011;65238;42.662;23.280;2023-06-14T04:31:58;7.72;;;6.03;;
76409;SDS011;65238;42.662;23.280;2023-06-14T04:34:27;13.77;;;7.32;;
76409;SDS011;65238;42.662;23.280;2023-06-14T04:36:57;8.88;;;6.95;;
76409;SDS011;65238;42.662;23.280;2023-06-14T04:39:24;11.05;;;7.30;;
76409;SDS011;65238;42.662;23.280;2023-06-14T04:41:51;9.60;;;7.35;;
76409;SDS011;65238;42.662;23.280;2023-06-14T04:44:17;14.68;;;7.15;;
76409;SDS011;65238;42.662;23.280;2023-06-14T04:46:44;9.98;;;6.47;;
76409;SDS011;65238;42.662;23.280;2023-06-14T04:49:14;10.60;;;7.15;;
76409;SDS011;65238;42.662;23.280;2023-06-14T04:51:40;10.82;;;7.03;;
76409;SDS011;65238;42.662;23.280;2023-06-14T04:54:09;9.32;;;6.95;;
76409;SDS011;65238;42.662;23.280;2023-06-14T04:56:38;9.18;;;6.97;;
76409;SDS011;65238;42.662;23.280;2023-06-14T04:59:04;9.07;;;6.60;;
76409;SDS011;65238;42.662;23.280;2023-06-14T05:01:30;9.90;;;7.30;;
76409;SDS011;65238;42.662;23.280;2023-06-14T05:03:57;8.10;;;6.60;;
76409;SDS011;65238;42.662;23.280;2023-06-14T05:06:22;13.02;;;7.10;;
76409;SDS011;65238;42.662;23.280;2023-06-14T05:08:48;11.60;;;7.78;;
76409;SDS011;65238;42.662;23.280;2023-06-14T05:11:14;11.95;;;8.10;;
76409;SDS011;65238;42.662;23.280;2023-06-14T05:13:39;13.75;;;9.60;;
76409;SDS011;65238;42.662;23.280;2023-06-14T05:16:06;13.80;;;9.50;;
76409;SDS011;65238;42.662;23.280;2023-06-14T05:18:31;15.38;;;10.60;;
76409;SDS011;65238;42.662;23.280;2023-06-14T05:20:59;12.98;;;8.55;;
76409;SDS011;65238;42.662;23.280;2023-06-14T05:23:25;15.20;;;10.70;;
76409;SDS011;65238;42.662;23.280;2023-06-14T05:25:50;14.07;;;10.40;;
76409;SDS011;65238;42.662;23.280;2023-06-14T05:28:16;15.60;;;10.57;;
76409;SDS011;65238;42.662;23.280;2023-06-14T05:30:41;10.20;;;7.55;;
76409;SDS011;65238;42.662;23.280;2023-06-14T05:33:07;16.15;;;9.02;;
76409;SDS011;65238;42.662;23.280;2023-06-14T05:35:32;15.60;;;10.55;;
76409;SDS011;65238;42.662;23.280;2023-06-14T05:37:58;15.13;;;9.93;;
76409;SDS011;65238;42.662;23.280;2023-06-14T05:40:23;15.82;;;10.10;;
76409;SDS011;65238;42.662;23.280;2023-06-14T05:42:49;14.35;;;9.50;;
76409;SDS011;65238;42.662;23.280;2023-06-14T05:45:14;13.90;;;9.73;;
76409;SDS011;65238;42.662;23.280;2023-06-14T05:47:42;12.02;;;8.85;;
76409;SDS011;65238;42.662;23.280;2023-06-14T05:50:08;21.42;;;9.77;;
76409;SDS011;65238;42.662;23.280;2023-06-14T05:52:34;14.35;;;9.75;;
76409;SDS011;65238;42.662;23.280;2023-06-14T05:55:00;12.80;;;9.75;;
76409;SDS011;65238;42.662;23.280;2023-06-14T05:57:26;14.43;;;10.02;;
76409;SDS011;65238;42.662;23.280;2023-06-14T05:59:52;14.52;;;9.88;;
76409;SDS011;65238;42.662;23.280;2023-06-14T06:02:17;17.02;;;10.65;;
76409;SDS011;65238;42.662;23.280;2023-06-14T06:04:43;11.80;;;9.27;;
76409;SDS011;65238;42.662;23.280;2023-06-14T06:07:08;16.88;;;10.60;;
76409;SDS011;65238;42.662;23.280;2023-06-14T06:09:33;15.68;;;10.73;;
76409;SDS011;65238;42.662;23.280;2023-06-14T06:11:59;16.52;;;9.82;;
76409;SDS011;65238;42.662;23.280;2023-06-14T06:14:24;13.02;;;9.88;;
76409;SDS011;65238;42.662;23.280;2023-06-14T06:16:50;15.75;;;10.68;;
76409;SDS011;65238;42.662;23.280;2023-06-14T06:19:17;17.40;;;10.50;;
76409;SDS011;65238;42.662;23.280;2023-06-14T06:21:43;14.88;;;10.50;;
76409;SDS011;65238;42.662;23.280;2023-06-14T06:24:08;13.93;;;9.70;;
76409;SDS011;65238;42.662;23.280;2023-06-14T06:26:34;17.33;;;10.48;;
76409;SDS011;65238;42.662;23.280;2023-06-14T06:28:59;13.55;;;9.85;;
76409;SDS011;65238;42.662;23.280;2023-06-14T06:31:25;17.42;;;9.02;;
76409;SDS011;65238;42.662;23.280;2023-06-14T06:33:52;14.13;;;9.18;;
76409;SDS011;65238;42.662;23.280;2023-06-14T06:36:19;22.65;;;9.07;;
76409;SDS011;65238;42.662;23.280;2023-06-14T06:38:45;11.18;;;7.93;;
76409;SDS011;65238;42.662;23.280;2023-06-14T06:41:11;14.95;;;7.95;;
76409;SDS011;65238;42.662;23.280;2023-06-14T06:43:36;16.88;;;8.93;;
76409;SDS011;65238;42.662;23.280;2023-06-14T06:46:01;15.10;;;9.13;;
76409;SDS011;65238;42.662;23.280;2023-06-14T06:48:27;18.15;;;9.88;;
76409;SDS011;65238;42.662;23.280;2023-06-14T06:50:53;13.38;;;9.75;;
76409;SDS011;65238;42.662;23.280;2023-06-14T06:53:19;18.73;;;12.98;;
76409;SDS011;65238;42.662;23.280;2023-06-14T06:55:44;17.80;;;10.55;;
76409;SDS011;65238;42.662;23.280;2023-06-14T06:58:09;17.08;;;10.02;;
76409;SDS011;65238;42.662;23.280;2023-06-14T07:00:35;14.82;;;10.27;;
76409;SDS011;65238;42.662;23.280;2023-06-14T07:03:00;15.07;;;10.27;;
76409;SDS011;65238;42.662;23.280;2023-06-14T07:05:26;13.63;;;9.65;;
76409;SDS011;65238;42.662;23.280;2023-06-14T07:07:51;18.67;;;9.98;;
76409;SDS011;65238;42.662;23.280;2023-06-14T07:10:17;16.27;;;11.07;;
76409;SDS011;65238;42.662;23.280;2023-06-14T07:12:43;14.80;;;9.63;;
76409;SDS011;65238;42.662;23.280;2023-06-14T07:15:09;15.80;;;9.95;;
76409;SDS011;65238;42.662;23.280;2023-06-14T07:17:35;13.02;;;9.55;;
76409;SDS011;65238;42.662;23.280;2023-06-14T07:20:01;22.60;;;10.50;;
76409;SDS011;65238;42.662;23.280;2023-06-14T07:22:32;16.55;;;10.63;;
76409;SDS011;65238;42.662;23.280;2023-06-14T07:24:58;15.70;;;10.25;;
76409;SDS011;65238;42.662;23.280;2023-06-14T07:27:23;15.18;;;10.45;;
76409;SDS011;65238;42.662;23.280;2023-06-14T07:29:48;18.02;;;10.68;;
76409;SDS011;65238;42.662;23.280;2023-06-14T07:32:14;16.08;;;10.60;;
76409;SDS011;65238;42.662;23.280;2023-06-14T07:34:39;16.70;;;10.38;;
76409;SDS011;65238;42.662;23.280;2023-06-14T07:37:04;20.92;;;11.10;;
76409;SDS011;65238;42.662;23.280;2023-06-14T07:39:30;13.85;;;10.60;;
76409;SDS011;65238;42.662;23.280;2023-06-14T07:41:56;19.17;;;11.63;;
76409;SDS011;65238;42.662;23.280;2023-06-14T07:44:21;14.00;;;10.45;;
76409;SDS011;65238;42.662;23.280;2023-06-14T07:46:46;19.20;;;11.45;;
76409;SDS011;65238;42.662;23.280;2023-06-14T07:49:14;16.17;;;11.20;;
76409;SDS011;65238;42.662;23.280;2023-06-14T07:51:40;14.07;;;10.10;;
76409;SDS011;65238;42.662;23.280;2023-06-14T07:54:05;17.83;;;10.70;;
76409;SDS011;65238;42.662;23.280;2023-06-14T07:56:32;12.25;;;9.40;;
76409;SDS011;65238;42.662;23.280;2023-06-14T07:58:58;12.82;;;8.88;;
76409;SDS011;65238;42.662;23.280;2023-06-14T08:01:23;12.50;;;8.57;;
76409;SDS011;65238;42.662;23.280;2023-06-14T08:03:50;12.20;;;9.15;;
76409;SDS011;65238;42.662;23.280;2023-06-14T08:06:15;12.43;;;8.07;;
76409;SDS011;65238;42.662;23.280;2023-06-14T08:08:41;10.88;;;8.18;;
76409;SDS011;65238;42.662;23.280;2023-06-14T08:11:06;11.80;;;8.18;;
76409;SDS011;65238;42.662;23.280;2023-06-14T08:13:32;13.35;;;8.68;;
76409;SDS011;65238;42.662;23.280;2023-06-14T08:15:57;10.00;;;8.20;;
76409;SDS011;65238;42.662;23.280;2023-06-14T08:18:23;13.85;;;8.95;;
76409;SDS011;65238;42.662;23.280;2023-06-14T08:20:48;15.32;;;9.20;;
76409;SDS011;65238;42.662;23.280;2023-06-14T08:23:15;16.48;;;8.50;;
76409;SDS011;65238;42.662;23.280;2023-06-14T08:25:44;11.75;;;8.55;;
76409;SDS011;65238;42.662;23.280;2023-06-14T08:28:10;11.77;;;8.88;;
76409;SDS011;65238;42.662;23.280;2023-06-14T08:30:35;16.42;;;9.00;;
76409;SDS011;65238;42.662;23.280;2023-06-14T08:33:01;13.70;;;9.00;;
76409;SDS011;65238;42.662;23.280;2023-06-14T08:35:26;13.77;;;9.27;;
76409;SDS011;65238;42.662;23.280;2023-06-14T08:37:51;16.42;;;8.50;;
76409;SDS011;65238;42.662;23.280;2023-06-14T08:40:18;16.95;;;9.68;;
76409;SDS011;65238;42.662;23.280;2023-06-14T08:42:47;11.55;;;8.77;;
76409;SDS011;65238;42.662;23.280;2023-06-14T08:45:19;17.35;;;9.80;;
76409;SDS011;65238;42.662;23.280;2023-06-14T08:47:46;12.93;;;9.18;;
76409;SDS011;65238;42.662;23.280;2023-06-14T08:50:17;12.57;;;8.95;;
76409;SDS011;65238;42.662;23.280;2023-06-14T08:52:46;14.48;;;10.15;;
76409;SDS011;65238;42.662;23.280;2023-06-14T08:55:15;13.60;;;9.88;;
76409;SDS011;65238;42.662;23.280;2023-06-14T08:57:42;15.25;;;10.05;;
76409;SDS011;65238;42.662;23.280;2023-06-14T09:00:08;13.52;;;9.27;;
76409;SDS011;65238;42.662;23.280;2023-06-14T09:02:38;10.63;;;8.00;;
76409;SDS011;65238;42.662;23.280;2023-06-14T09:05:08;10.27;;;7.88;;
76409;SDS011;65238;42.662;23.280;2023-06-14T09:07:35;14.52;;;8.35;;
76409;SDS011;65238;42.662;23.280;2023-06-14T09:10:07;15.50;;;10.32;;
76409;SDS011;65238;42.662;23.280;2023-06-14T09:12:34;11.57;;;9.27;;
76409;SDS011;65238;42.662;23.280;2023-06-14T09:14:59;15.30;;;9.93;;
76409;SDS011;65238;42.662;23.280;2023-06-14T09:17:25;13.98;;;9.68;;
76409;SDS011;65238;42.662;23.280;2023-06-14T09:19:50;11.35;;;9.38;;
76409;SDS011;65238;42.662;23.280;2023-06-14T09:22:16;19.15;;;11.80;;
76409;SDS011;65238;42.662;23.280;2023-06-14T09:24:41;22.38;;;12.93;;
76409;SDS011;65238;42.662;23.280;2023-06-14T09:27:07;15.57;;;11.68;;
76409;SDS011;65238;42.662;23.280;2023-06-14T09:29:33;16.25;;;11.05;;
76409;SDS011;65238;42.662;23.280;2023-06-14T09:31:58;17.08;;;11.07;;
76409;SDS011;65238;42.662;23.280;2023-06-14T09:34:24;18.13;;;11.40;;
76409;SDS011;65238;42.662;23.280;2023-06-14T09:36:49;22.20;;;11.55;;
76409;SDS011;65238;42.662;23.280;2023-06-14T09:39:16;15.20;;;10.05;;
76409;SDS011;65238;42.662;23.280;2023-06-14T09:41:43;14.85;;;10.25;;
76409;SDS011;65238;42.662;23.280;2023-06-14T09:44:09;17.75;;;10.93;;
76409;SDS011;65238;42.662;23.280;2023-06-14T09:46:36;20.67;;;11.05;;
76409;SDS011;65238;42.662;23.280;2023-06-14T09:49:02;22.00;;;10.73;;
76409;SDS011;65238;42.662;23.280;2023-06-14T09:51:29;14.65;;;11.48;;
76409;SDS011;65238;42.662;23.280;2023-06-14T09:54:01;14.48;;;11.30;;
76409;SDS011;65238;42.662;23.280;2023-06-14T09:56:32;15.27;;;11.40;;
76409;SDS011;65238;42.662;23.280;2023-06-14T09:59:00;17.88;;;11.65;;
76409;SDS011;65238;42.662;23.280;2023-06-14T10:01:30;17.25;;;9.55;;
76409;SDS011;65238;42.662;23.280;2023-06-14T10:04:00;13.77;;;10.32;;
76409;SDS011;65238;42.662;23.280;2023-06-14T10:06:28;16.83;;;11.43;;
76409;SDS011;65238;42.662;23.280;2023-06-14T10:08:56;18.60;;;12.82;;
76409;SDS011;65238;42.662;23.280;2023-06-14T10:11:25;21.55;;;11.98;;
76409;SDS011;65238;42.662;23.280;2023-06-14T10:13:57;18.52;;;13.55;;
76409;SDS011;65238;42.662;23.280;2023-06-14T10:16:28;16.88;;;9.32;;
76409;SDS011;65238;42.662;23.280;2023-06-14T10:21:28;20.27;;;11.80;;
76409;SDS011;65238;42.662;23.280;2023-06-14T10:24:03;13.48;;;10.82;;
76409;SDS011;65238;42.662;23.280;2023-06-14T10:26:31;14.43;;;10.40;;
76409;SDS011;65238;42.662;23.280;2023-06-14T10:28:57;19.00;;;11.25;;
76409;SDS011;65238;42.662;23.280;2023-06-14T10:31:46;13.13;;;10.23;;
76409;SDS011;65238;42.662;23.280;2023-06-14T10:34:14;15.25;;;10.48;;
76409;SDS011;65238;42.662;23.280;2023-06-14T10:37:06;15.98;;;10.77;;
76409;SDS011;65238;42.662;23.280;2023-06-14T10:39:38;14.95;;;11.30;;
76409;SDS011;65238;42.662;23.280;2023-06-14T10:42:07;21.08;;;12.30;;
76409;SDS011;65238;42.662;23.280;2023-06-14T10:47:08;16.83;;;10.75;;
76409;SDS011;65238;42.662;23.280;2023-06-14T10:49:55;14.27;;;10.82;;
76409;SDS011;65238;42.662;23.280;2023-06-14T10:52:23;14.80;;;10.63;;
76409;SDS011;65238;42.662;23.280;2023-06-14T10:57:44;15.23;;;10.52;;
76409;SDS011;65238;42.662;23.280;2023-06-14T11:00:11;14.68;;;10.57;;
76409;SDS011;65238;42.662;23.280;2023-06-14T11:02:45;15.63;;;9.70;;
76409;SDS011;65238;42.662;23.280;2023-06-14T11:05:44;18.75;;;10.88;;
76409;SDS011;65238;42.662;23.280;2023-06-14T11:11:10;13.70;;;10.02;;
76409;SDS011;65238;42.662;23.280;2023-06-14T11:13:38;15.80;;;10.40;;
76409;SDS011;65238;42.662;23.280;2023-06-14T11:16:14;16.50;;;11.07;;
76409;SDS011;65238;42.662;23.280;2023-06-14T11:18:41;13.95;;;10.10;;
76409;SDS011;65238;42.662;23.280;2023-06-14T11:21:06;18.38;;;11.43;;
76409;SDS011;65238;42.662;23.280;2023-06-14T11:23:33;14.90;;;10.48;;
76409;SDS011;65238;42.662;23.280;2023-06-14T11:25:59;14.20;;;10.55;;
76409;SDS011;65238;42.662;23.280;2023-06-14T11:28:24;13.63;;;10.20;;
76409;SDS011;65238;42.662;23.280;2023-06-14T11:31:01;14.82;;;10.15;;
76409;SDS011;65238;42.662;23.280;2023-06-14T11:33:27;13.82;;;10.98;;
76409;SDS011;65238;42.662;23.280;2023-06-14T11:35:52;12.85;;;9.98;;
76409;SDS011;65238;42.662;23.280;2023-06-14T11:38:18;13.70;;;10.40;;
76409;SDS011;65238;42.662;23.280;2023-06-14T11:40:43;15.73;;;9.90;;
76409;SDS011;65238;42.662;23.280;2023-06-14T11:43:09;12.25;;;10.05;;
76409;SDS011;65238;42.662;23.280;2023-06-14T11:45:35;15.43;;;9.30;;
76409;SDS011;65238;42.662;23.280;2023-06-14T11:48:00;14.15;;;9.45;;
76409;SDS011;65238;42.662;23.280;2023-06-14T11:50:26;12.82;;;9.18;;
76409;SDS011;65238;42.662;23.280;2023-06-14T11:52:56;15.82;;;9.98;;
76409;SDS011;65238;42.662;23.280;2023-06-14T11:55:22;12.82;;;9.07;;
76409;SDS011;65238;42.662;23.280;2023-06-14T11:57:48;15.77;;;8.70;;
76409;SDS011;65238;42.662;23.280;2023-06-14T12:00:14;11.43;;;8.75;;
76409;SDS011;65238;42.662;23.280;2023-06-14T12:02:40;11.15;;;8.63;;
76409;SDS011;65238;42.662;23.280;2023-06-14T12:05:07;11.35;;;8.30;;
76409;SDS011;65238;42.662;23.280;2023-06-14T12:07:35;11.38;;;7.82;;
76409;SDS011;65238;42.662;23.280;2023-06-14T12:10:05;8.27;;;7.40;;
76409;SDS011;65238;42.662;23.280;2023-06-14T12:12:36;13.35;;;8.63;;
76409;SDS011;65238;42.662;23.280;2023-06-14T12:15:04;9.27;;;7.90;;
76409;SDS011;65238;42.662;23.280;2023-06-14T12:17:34;11.45;;;8.23;;
76409;SDS011;65238;42.662;23.280;2023-06-14T12:20:05;13.30;;;7.30;;
76409;SDS011;65238;42.662;23.280;2023-06-14T12:22:33;11.77;;;8.23;;
76409;SDS011;65238;42.662;23.280;2023-06-14T12:24:59;9.02;;;7.20;;
76409;SDS011;65238;42.662;23.280;2023-06-14T12:27:25;11.10;;;7.22;;
76409;SDS011;65238;42.662;23.280;2023-06-14T12:30:00;9.30;;;7.22;;
76409;SDS011;65238;42.662;23.280;2023-06-14T12:32:27;11.07;;;7.47;;
76409;SDS011;65238;42.662;23.280;2023-06-14T12:34:53;12.32;;;7.15;;
76409;SDS011;65238;42.662;23.280;2023-06-14T12:37:18;11.02;;;7.05;;
76409;SDS011;65238;42.662;23.280;2023-06-14T12:39:43;10.00;;;7.82;;
76409;SDS011;65238;42.662;23.280;2023-06-14T12:42:09;12.15;;;7.75;;
76409;SDS011;65238;42.662;23.280;2023-06-14T12:44:34;10.18;;;7.28;;
76409;SDS011;65238;42.662;23.280;2023-06-14T12:47:05;9.48;;;6.90;;
76409;SDS011;65238;42.662;23.280;2023-06-14T12:49:31;8.23;;;7.22;;
76409;SDS011;65238;42.662;23.280;2023-06-14T12:51:56;9.10;;;7.07;;
76409;SDS011;65238;42.662;23.280;2023-06-14T12:54:21;9.05;;;7.13;;
76409;SDS011;65238;42.662;23.280;2023-06-14T12:56:50;8.73;;;6.88;;
76409;SDS011;65238;42.662;23.280;2023-06-14T12:59:16;7.50;;;6.30;;
76409;SDS011;65238;42.662;23.280;2023-06-14T13:01:43;9.30;;;6.57;;
76409;SDS011;65238;42.662;23.280;2023-06-14T13:04:09;10.43;;;7.05;;
76409;SDS011;65238;42.662;23.280;2023-06-14T13:06:35;10.00;;;6.53;;
76409;SDS011;65238;42.662;23.280;2023-06-14T13:09:00;9.18;;;6.97;;
76409;SDS011;65238;42.662;23.280;2023-06-14T13:11:26;7.95;;;6.70;;
76409;SDS011;65238;42.662;23.280;2023-06-14T13:13:52;10.88;;;7.25;;
76409;SDS011;65238;42.662;23.280;2023-06-14T13:16:17;9.88;;;6.82;;
76409;SDS011;65238;42.662;23.280;2023-06-14T13:18:43;8.27;;;6.78;;
76409;SDS011;65238;42.662;23.280;2023-06-14T13:21:08;9.88;;;6.32;;
76409;SDS011;65238;42.662;23.280;2023-06-14T13:23:33;8.85;;;6.68;;
76409;SDS011;65238;42.662;23.280;2023-06-14T13:25:59;10.38;;;6.80;;
76409;SDS011;65238;42.662;23.280;2023-06-14T13:28:24;8.27;;;5.78;;
76409;SDS011;65238;42.662;23.280;2023-06-14T13:30:51;8.00;;;6.72;;
76409;SDS011;65238;42.662;23.280;2023-06-14T13:33:16;12.77;;;6.47;;
76409;SDS011;65238;42.662;23.280;2023-06-14T13:35:42;10.23;;;6.25;;
76409;SDS011;65238;42.662;23.280;2023-06-14T13:38:08;8.30;;;6.25;;
76409;SDS011;65238;42.662;23.280;2023-06-14T13:40:34;11.25;;;6.68;;
76409;SDS011;65238;42.662;23.280;2023-06-14T13:43:00;10.82;;;6.95;;
76409;SDS011;65238;42.662;23.280;2023-06-14T13:45:25;11.43;;;6.18;;
76409;SDS011;65238;42.662;23.280;2023-06-14T13:47:51;9.25;;;6.57;;
76409;SDS011;65238;42.662;23.280;2023-06-14T13:50:16;8.98;;;6.68;;
76409;SDS011;65238;42.662;23.280;2023-06-14T13:52:42;11.13;;;6.57;;
76409;SDS011;65238;42.662;23.280;2023-06-14T13:55:08;9.05;;;6.72;;
76409;SDS011;65238;42.662;23.280;2023-06-14T13:57:34;12.00;;;6.75;;
76409;SDS011;65238;42.662;23.280;2023-06-14T14:00:00;11.00;;;7.53;;
76409;SDS011;65238;42.662;23.280;2023-06-14T14:02:28;9.55;;;6.93;;
76409;SDS011;65238;42.662;23.280;2023-06-14T14:04:54;9.35;;;6.78;;
76409;SDS011;65238;42.662;23.280;2023-06-14T14:07:20;12.27;;;7.03;;
76409;SDS011;65238;42.662;23.280;2023-06-14T14:09:47;9.30;;;7.13;;
76409;SDS011;65238;42.662;23.280;2023-06-14T14:12:12;8.55;;;6.38;;
76409;SDS011;65238;42.662;23.280;2023-06-14T14:14:39;11.60;;;7.65;;
76409;SDS011;65238;42.662;23.280;2023-06-14T14:17:04;10.48;;;6.65;;
76409;SDS011;65238;42.662;23.280;2023-06-14T14:19:30;10.63;;;6.78;;
76409;SDS011;65238;42.662;23.280;2023-06-14T14:21:56;10.48;;;6.60;;
76409;SDS011;65238;42.662;23.280;2023-06-14T14:24:24;9.32;;;7.05;;
76409;SDS011;65238;42.662;23.280;2023-06-14T14:26:51;10.55;;;7.60;;
76409;SDS011;65238;42.662;23.280;2023-06-14T14:29:18;10.50;;;8.02;;
76409;SDS011;65238;42.662;23.280;2023-06-14T14:31:44;13.23;;;9.85;;